Morrowville, KS (66958)

11:08 AM CDT on August 30, 2014 (GMT -0500)
Crystal Springs Campground | Change Station
CLOSE
Current Station
Personal Weather Station
Location: Fairbury, NE
Elevation: 1424 ft
Nearby Weather Stations

Elev 1424 ft 40.13 °N, 97.21 °W | Updated 0 second ago

Clear
Clear
76.7 °F
Feels Like 78 °F
N
4.0
Wind Variable Wind from NNW
Gusts 6.0 mph

Today
High -- | Low -- °F
--% Chance of Precip.
Yesterday
High -- | Low -- °F
Precip. -- in
6:54 AM 8:03 PM
Waxing Crescent, 23% visible
Pressure 29.99 in
Visibility 10.0 miles
Clouds Clear
Heat Index 78 °F
Dew Point 68 °F
Humidity 74%
Rainfall 0.00 in
Snow Depth Not available.
UV 6 out of 12
Pollen 10.20 out of 12
Air Quality Not available.
Flu Activity Not available.
METAR KHJH 301555Z AUTO 00000KT 10SM CLR 24/17 A2999 RMK AO2 T02380169

More Conditions Fewer Conditions

Pressure 29.99 in
Visibility 10.0 miles
Clouds Clear
Heat Index 78 °F
Dew Point 68 °F
Humidity 74%
Rainfall 0.00 in
Snow Depth Not available.
UV 6 out of 12
Pollen 10.20 out of 12
Air Quality Not available.
Flu Activity Not available.
METAR KHJH 301555Z AUTO 00000KT 10SM CLR 24/17 A2999 RMK AO2 T02380169

More Conditions Fewer Conditions

10-Day Weather Forecast

Almanac

Astronomy

Aug. 30, 2014 Rise Set
Actual Time 6:54 AM CDT 8:03 PM CDT
Civil Twilight 6:26 AM CDT 8:30 PM CDT
Nautical Twilight 5:53 AM CDT 9:03 PM CDT
Astronomical Twilight 5:18 AM CDT 9:38 PM CDT
Moon 11:43 AM CDT 10:38 PM CDT
Length of Visible Light 14h 03m
Length of Day
13h 08m
Tomorrow will be 2m 29s shorter.
Waxing Crescent, 23% of the Moon is Illuminated
Today
Waxing Crescent
Sep 2
First Quarter
Sep 8
Full
Sep 15
Last Quarter
Sep 24
New

Today's Extremes

State Highs State Lows

Community

WunderPhotos

Upload Photos

1,748,555 photos uploaded!

WunderBlogs® & News

Nearby

Snow Depth

Station Depth Elevation
No new snow has been reported.

Earthquake Activity

City Distance Mag. Time & Date
No recent earthquake activity has been reported nearby.
Minimum magnitude displayed is 2.5.

Coastal Water Temperatures

Place Temperature
No Stations Reporting

Nearby Weather Stations